sensor_id;sensor_type;location;lat;lon;timestamp;pressure;altitude;pressure_sealevel;temperature;humidity
33185;BME280;19550;42.872;25.494;2023-03-12T00:01:57;95350.25;;;5.00;71.90
33185;BME280;19550;42.872;25.494;2023-03-12T00:04:24;95359.00;;;5.02;69.27
33185;BME280;19550;42.872;25.494;2023-03-12T00:06:51;95346.53;;;4.96;71.91
33185;BME280;19550;42.872;25.494;2023-03-12T00:09:18;95353.44;;;4.94;69.49
33185;BME280;19550;42.872;25.494;2023-03-12T00:11:45;95349.78;;;4.98;69.38
33185;BME280;19550;42.872;25.494;2023-03-12T00:14:12;95330.19;;;4.91;69.93
33185;BME280;19550;42.872;25.494;2023-03-12T00:16:40;95354.38;;;4.89;71.00
33185;BME280;19550;42.872;25.494;2023-03-12T00:19:08;95376.03;;;4.91;69.71
33185;BME280;19550;42.872;25.494;2023-03-12T00:21:37;95374.53;;;4.85;70.08
33185;BME280;19550;42.872;25.494;2023-03-12T00:24:04;95376.84;;;4.91;70.61
33185;BME280;19550;42.872;25.494;2023-03-12T00:26:31;95373.72;;;4.84;69.14
33185;BME280;19550;42.872;25.494;2023-03-12T00:28:58;95370.97;;;4.84;69.41
33185;BME280;19550;42.872;25.494;2023-03-12T00:31:27;95368.84;;;4.81;70.15
33185;BME280;19550;42.872;25.494;2023-03-12T00:33:58;95374.84;;;4.83;69.53
33185;BME280;19550;42.872;25.494;2023-03-12T00:36:26;95377.50;;;4.74;68.67
33185;BME280;19550;42.872;25.494;2023-03-12T00:38:54;95362.97;;;4.74;71.48
33185;BME280;19550;42.872;25.494;2023-03-12T00:41:22;95374.75;;;4.74;70.07
33185;BME280;19550;42.872;25.494;2023-03-12T00:43:50;95375.56;;;4.75;69.75
33185;BME280;19550;42.872;25.494;2023-03-12T00:46:18;95392.72;;;4.80;70.43
33185;BME280;19550;42.872;25.494;2023-03-12T00:48:45;95393.16;;;4.74;69.87
33185;BME280;19550;42.872;25.494;2023-03-12T00:51:13;95373.97;;;4.60;70.76
33185;BME280;19550;42.872;25.494;2023-03-12T00:53:40;95377.53;;;4.61;70.17
33185;BME280;19550;42.872;25.494;2023-03-12T00:56:07;95378.84;;;4.63;71.14
33185;BME280;19550;42.872;25.494;2023-03-12T00:58:34;95392.16;;;4.70;70.05
33185;BME280;19550;42.872;25.494;2023-03-12T01:01:01;95379.56;;;4.69;70.27
33185;BME280;19550;42.872;25.494;2023-03-12T01:03:27;95376.13;;;4.63;70.69
33185;BME280;19550;42.872;25.494;2023-03-12T01:05:54;95382.31;;;4.55;70.65
33185;BME280;19550;42.872;25.494;2023-03-12T01:08:23;95384.97;;;4.47;70.77
33185;BME280;19550;42.872;25.494;2023-03-12T01:10:51;95394.81;;;4.48;72.04
33185;BME280;19550;42.872;25.494;2023-03-12T01:13:18;95401.84;;;4.54;72.26
33185;BME280;19550;42.872;25.494;2023-03-12T01:15:44;95390.44;;;4.47;71.86
33185;BME280;19550;42.872;25.494;2023-03-12T01:18:11;95377.06;;;4.45;71.79
33185;BME280;19550;42.872;25.494;2023-03-12T01:20:38;95374.22;;;4.36;71.05
33185;BME280;19550;42.872;25.494;2023-03-12T01:23:05;95384.56;;;4.39;72.77
33185;BME280;19550;42.872;25.494;2023-03-12T01:25:34;95395.75;;;4.43;72.30
33185;BME280;19550;42.872;25.494;2023-03-12T01:28:00;95399.50;;;4.33;72.06
33185;BME280;19550;42.872;25.494;2023-03-12T01:30:27;95390.78;;;4.31;72.69
33185;BME280;19550;42.872;25.494;2023-03-12T01:32:54;95382.88;;;4.30;71.83
33185;BME280;19550;42.872;25.494;2023-03-12T01:35:21;95373.59;;;4.26;73.03
33185;BME280;19550;42.872;25.494;2023-03-12T01:37:48;95368.13;;;4.26;71.63
33185;BME280;19550;42.872;25.494;2023-03-12T01:40:16;95385.78;;;4.33;73.34
33185;BME280;19550;42.872;25.494;2023-03-12T01:42:52;95397.59;;;4.34;73.67
33185;BME280;19550;42.872;25.494;2023-03-12T01:48:33;95414.16;;;4.29;72.47
33185;BME280;19550;42.872;25.494;2023-03-12T01:51:02;95405.72;;;4.25;72.78
33185;BME280;19550;42.872;25.494;2023-03-12T01:53:30;95407.56;;;4.30;74.42
33185;BME280;19550;42.872;25.494;2023-03-12T01:55:59;95406.84;;;4.24;73.29
33185;BME280;19550;42.872;25.494;2023-03-12T01:58:30;95410.47;;;4.20;72.63
33185;BME280;19550;42.872;25.494;2023-03-12T02:00:59;95420.16;;;4.31;73.23
33185;BME280;19550;42.872;25.494;2023-03-12T02:03:26;95433.16;;;4.25;73.65
33185;BME280;19550;42.872;25.494;2023-03-12T02:05:55;95429.38;;;4.21;73.03
33185;BME280;19550;42.872;25.494;2023-03-12T02:08:24;95429.19;;;4.18;72.94
33185;BME280;19550;42.872;25.494;2023-03-12T02:10:51;95437.19;;;4.14;75.43
33185;BME280;19550;42.872;25.494;2023-03-12T02:13:18;95438.13;;;4.10;73.98
33185;BME280;19550;42.872;25.494;2023-03-12T02:15:46;95428.44;;;4.12;72.47
33185;BME280;19550;42.872;25.494;2023-03-12T02:18:15;95425.22;;;4.10;74.76
33185;BME280;19550;42.872;25.494;2023-03-12T02:20:48;95425.00;;;4.07;72.95
33185;BME280;19550;42.872;25.494;2023-03-12T02:23:25;95422.59;;;4.05;74.55
33185;BME280;19550;42.872;25.494;2023-03-12T02:25:55;95437.81;;;3.97;75.29
33185;BME280;19550;42.872;25.494;2023-03-12T02:28:26;95447.81;;;3.88;75.97
33185;BME280;19550;42.872;25.494;2023-03-12T02:30:57;95465.00;;;3.94;75.59
33185;BME280;19550;42.872;25.494;2023-03-12T02:33:25;95466.59;;;3.81;75.03
33185;BME280;19550;42.872;25.494;2023-03-12T02:35:53;95476.44;;;3.82;76.19
33185;BME280;19550;42.872;25.494;2023-03-12T02:38:36;95482.22;;;3.81;77.13
33185;BME280;19550;42.872;25.494;2023-03-12T02:41:09;95479.56;;;3.76;76.50
33185;BME280;19550;42.872;25.494;2023-03-12T02:43:37;95462.69;;;3.69;78.08
33185;BME280;19550;42.872;25.494;2023-03-12T02:46:05;95468.56;;;3.62;76.91
33185;BME280;19550;42.872;25.494;2023-03-12T02:48:34;95451.59;;;3.60;77.74
33185;BME280;19550;42.872;25.494;2023-03-12T02:51:00;95469.75;;;3.56;78.53
33185;BME280;19550;42.872;25.494;2023-03-12T02:53:28;95471.16;;;3.53;77.37
33185;BME280;19550;42.872;25.494;2023-03-12T02:55:55;95469.34;;;3.49;77.90
33185;BME280;19550;42.872;25.494;2023-03-12T02:58:24;95481.09;;;3.49;77.64
33185;BME280;19550;42.872;25.494;2023-03-12T03:00:50;95491.44;;;3.52;77.50
33185;BME280;19550;42.872;25.494;2023-03-12T03:03:17;95489.03;;;3.51;77.12
33185;BME280;19550;42.872;25.494;2023-03-12T03:05:44;95495.31;;;3.51;78.11
33185;BME280;19550;42.872;25.494;2023-03-12T03:08:11;95503.75;;;3.55;77.30
33185;BME280;19550;42.872;25.494;2023-03-12T03:10:38;95503.09;;;3.44;76.81
33185;BME280;19550;42.872;25.494;2023-03-12T03:13:05;95498.81;;;3.38;76.44
33185;BME280;19550;42.872;25.494;2023-03-12T03:15:33;95497.69;;;3.39;77.92
33185;BME280;19550;42.872;25.494;2023-03-12T03:18:00;95507.47;;;3.45;78.00
33185;BME280;19550;42.872;25.494;2023-03-12T03:20:29;95520.19;;;3.36;79.00
33185;BME280;19550;42.872;25.494;2023-03-12T03:22:55;95515.81;;;3.35;77.71
33185;BME280;19550;42.872;25.494;2023-03-12T03:25:23;95516.72;;;3.31;79.28
33185;BME280;19550;42.872;25.494;2023-03-12T03:27:50;95531.16;;;3.36;78.85
33185;BME280;19550;42.872;25.494;2023-03-12T03:30:17;95534.63;;;3.23;78.52
33185;BME280;19550;42.872;25.494;2023-03-12T03:32:47;95540.47;;;3.16;78.12
33185;BME280;19550;42.872;25.494;2023-03-12T03:35:14;95543.44;;;3.20;78.54
33185;BME280;19550;42.872;25.494;2023-03-12T03:37:41;95538.28;;;3.18;79.75
33185;BME280;19550;42.872;25.494;2023-03-12T03:40:09;95541.72;;;3.05;77.91
33185;BME280;19550;42.872;25.494;2023-03-12T03:42:37;95552.59;;;3.10;79.05
33185;BME280;19550;42.872;25.494;2023-03-12T03:45:06;95549.50;;;3.17;78.27
33185;BME280;19550;42.872;25.494;2023-03-12T03:47:34;95547.34;;;3.14;79.75
33185;BME280;19550;42.872;25.494;2023-03-12T03:50:03;95545.84;;;3.03;81.80
33185;BME280;19550;42.872;25.494;2023-03-12T03:52:30;95561.69;;;3.06;81.87
33185;BME280;19550;42.872;25.494;2023-03-12T03:54:57;95537.19;;;2.96;79.89
33185;BME280;19550;42.872;25.494;2023-03-12T03:57:25;95551.06;;;3.04;80.07
33185;BME280;19550;42.872;25.494;2023-03-12T03:59:51;95547.25;;;3.00;80.44
33185;BME280;19550;42.872;25.494;2023-03-12T04:02:18;95557.59;;;2.85;81.30
33185;BME280;19550;42.872;25.494;2023-03-12T04:04:45;95567.94;;;2.88;79.21
33185;BME280;19550;42.872;25.494;2023-03-12T04:07:13;95571.84;;;2.82;80.16
33185;BME280;19550;42.872;25.494;2023-03-12T04:09:41;95586.28;;;2.87;80.79
33185;BME280;19550;42.872;25.494;2023-03-12T04:12:07;95578.88;;;2.88;81.27
33185;BME280;19550;42.872;25.494;2023-03-12T04:14:38;95570.59;;;2.93;80.90
33185;BME280;19550;42.872;25.494;2023-03-12T04:17:05;95577.22;;;2.92;81.11
33185;BME280;19550;42.872;25.494;2023-03-12T04:19:32;95575.34;;;2.87;81.18
33185;BME280;19550;42.872;25.494;2023-03-12T04:21:59;95571.50;;;2.88;81.45
33185;BME280;19550;42.872;25.494;2023-03-12T04:24:27;95592.34;;;2.84;80.11
33185;BME280;19550;42.872;25.494;2023-03-12T04:26:54;95599.31;;;2.95;80.21
33185;BME280;19550;42.872;25.494;2023-03-12T04:29:21;95613.16;;;2.85;81.41
33185;BME280;19550;42.872;25.494;2023-03-12T04:31:47;95612.81;;;2.87;80.24
33185;BME280;19550;42.872;25.494;2023-03-12T04:34:14;95626.16;;;2.93;79.27
33185;BME280;19550;42.872;25.494;2023-03-12T04:36:41;95626.03;;;2.79;79.14
33185;BME280;19550;42.872;25.494;2023-03-12T04:39:09;95639.44;;;2.81;79.36
33185;BME280;19550;42.872;25.494;2023-03-12T04:41:37;95625.75;;;2.81;79.59
33185;BME280;19550;42.872;25.494;2023-03-12T04:44:04;95648.25;;;2.78;79.48
33185;BME280;19550;42.872;25.494;2023-03-12T04:46:31;95643.00;;;2.82;80.68
33185;BME280;19550;42.872;25.494;2023-03-12T04:48:58;95648.41;;;2.87;80.66
33185;BME280;19550;42.872;25.494;2023-03-12T04:51:27;95657.69;;;2.91;79.37
33185;BME280;19550;42.872;25.494;2023-03-12T04:53:53;95668.84;;;2.70;80.03
33185;BME280;19550;42.872;25.494;2023-03-12T04:56:20;95672.63;;;2.74;79.63
33185;BME280;19550;42.872;25.494;2023-03-12T04:58:50;95683.81;;;2.78;80.49
33185;BME280;19550;42.872;25.494;2023-03-12T05:01:18;95666.09;;;2.70;79.27
33185;BME280;19550;42.872;25.494;2023-03-12T05:03:47;95693.94;;;2.77;78.59
33185;BME280;19550;42.872;25.494;2023-03-12T05:06:14;95694.41;;;2.85;79.10
33185;BME280;19550;42.872;25.494;2023-03-12T05:08:40;95685.34;;;2.89;80.35
33185;BME280;19550;42.872;25.494;2023-03-12T05:11:07;95694.31;;;2.95;78.26
33185;BME280;19550;42.872;25.494;2023-03-12T05:13:34;95693.06;;;3.06;77.38
33185;BME280;19550;42.872;25.494;2023-03-12T05:16:02;95685.94;;;3.10;77.78
33185;BME280;19550;42.872;25.494;2023-03-12T05:18:29;95699.13;;;3.27;78.27
33185;BME280;19550;42.872;25.494;2023-03-12T05:20:58;95699.09;;;3.32;78.10
33185;BME280;19550;42.872;25.494;2023-03-12T05:23:25;95716.22;;;3.42;76.84
33185;BME280;19550;42.872;25.494;2023-03-12T05:25:51;95716.69;;;3.49;75.35
33185;BME280;19550;42.872;25.494;2023-03-12T05:28:18;95725.28;;;3.62;74.46
33185;BME280;19550;42.872;25.494;2023-03-12T05:30:46;95732.00;;;3.50;73.04
33185;BME280;19550;42.872;25.494;2023-03-12T05:33:14;95741.19;;;3.59;72.84
33185;BME280;19550;42.872;25.494;2023-03-12T05:35:41;95744.75;;;3.60;72.88
33185;BME280;19550;42.872;25.494;2023-03-12T05:38:07;95748.41;;;3.74;72.75
33185;BME280;19550;42.872;25.494;2023-03-12T05:40:34;95747.84;;;3.77;72.38
33185;BME280;19550;42.872;25.494;2023-03-12T05:43:01;95750.09;;;3.94;72.36
33185;BME280;19550;42.872;25.494;2023-03-12T05:45:28;95731.34;;;4.01;72.32
33185;BME280;19550;42.872;25.494;2023-03-12T05:47:54;95733.44;;;4.09;71.44
33185;BME280;19550;42.872;25.494;2023-03-12T05:50:24;95750.31;;;3.97;70.88
33185;BME280;19550;42.872;25.494;2023-03-12T05:52:51;95755.00;;;3.97;71.95
33185;BME280;19550;42.872;25.494;2023-03-12T05:55:18;95769.66;;;4.06;71.55
33185;BME280;19550;42.872;25.494;2023-03-12T05:57:45;95775.31;;;4.15;71.90
33185;BME280;19550;42.872;25.494;2023-03-12T06:00:13;95769.44;;;4.03;71.68
33185;BME280;19550;42.872;25.494;2023-03-12T06:02:40;95768.13;;;4.19;70.89
33185;BME280;19550;42.872;25.494;2023-03-12T06:05:08;95772.56;;;4.33;70.82
33185;BME280;19550;42.872;25.494;2023-03-12T06:07:36;95777.84;;;4.30;71.07
33185;BME280;19550;42.872;25.494;2023-03-12T06:10:04;95789.91;;;4.29;70.71
33185;BME280;19550;42.872;25.494;2023-03-12T06:12:31;95798.44;;;4.27;69.40
33185;BME280;19550;42.872;25.494;2023-03-12T06:14:58;95809.34;;;4.32;71.45
33185;BME280;19550;42.872;25.494;2023-03-12T06:17:25;95807.84;;;4.40;69.83
33185;BME280;19550;42.872;25.494;2023-03-12T06:19:52;95799.31;;;4.60;68.10
33185;BME280;19550;42.872;25.494;2023-03-12T06:22:18;95832.25;;;4.60;68.18
33185;BME280;19550;42.872;25.494;2023-03-12T06:24:47;95822.72;;;4.58;68.25
33185;BME280;19550;42.872;25.494;2023-03-12T06:27:15;95816.97;;;4.54;68.19
33185;BME280;19550;42.872;25.494;2023-03-12T06:29:42;95816.03;;;4.45;68.13
33185;BME280;19550;42.872;25.494;2023-03-12T06:32:10;95827.81;;;4.46;67.49
33185;BME280;19550;42.872;25.494;2023-03-12T06:34:39;95829.38;;;4.52;67.79
33185;BME280;19550;42.872;25.494;2023-03-12T06:37:05;95833.97;;;4.75;68.93
33185;BME280;19550;42.872;25.494;2023-03-12T06:39:32;95839.47;;;4.75;66.84
33185;BME280;19550;42.872;25.494;2023-03-12T06:42:00;95842.00;;;4.71;67.31
33185;BME280;19550;42.872;25.494;2023-03-12T06:44:27;95843.75;;;4.81;66.77
33185;BME280;19550;42.872;25.494;2023-03-12T06:46:54;95844.16;;;5.07;66.38
33185;BME280;19550;42.872;25.494;2023-03-12T06:49:21;95832.69;;;5.37;65.84
33185;BME280;19550;42.872;25.494;2023-03-12T06:51:48;95818.56;;;5.44;64.73
33185;BME280;19550;42.872;25.494;2023-03-12T06:54:15;95823.56;;;5.55;65.43
33185;BME280;19550;42.872;25.494;2023-03-12T06:56:41;95822.53;;;5.65;65.56
33185;BME280;19550;42.872;25.494;2023-03-12T06:59:10;95817.41;;;5.31;65.23
33185;BME280;19550;42.872;25.494;2023-03-12T07:01:37;95807.59;;;5.11;64.44
33185;BME280;19550;42.872;25.494;2023-03-12T07:04:03;95798.25;;;4.94;63.87
33185;BME280;19550;42.872;25.494;2023-03-12T07:06:30;95822.59;;;5.00;64.81
33185;BME280;19550;42.872;25.494;2023-03-12T07:08:57;95822.09;;;5.12;64.35
33185;BME280;19550;42.872;25.494;2023-03-12T07:11:24;95822.53;;;5.19;64.23
33185;BME280;19550;42.872;25.494;2023-03-12T07:13:50;95813.50;;;5.18;64.13
33185;BME280;19550;42.872;25.494;2023-03-12T07:16:19;95833.63;;;5.14;64.00
33185;BME280;19550;42.872;25.494;2023-03-12T07:18:45;95845.31;;;5.52;63.92
33185;BME280;19550;42.872;25.494;2023-03-12T07:21:12;95854.94;;;5.68;63.05
33185;BME280;19550;42.872;25.494;2023-03-12T07:23:41;95867.97;;;5.63;63.23
33185;BME280;19550;42.872;25.494;2023-03-12T07:26:07;95896.84;;;5.92;63.22
33185;BME280;19550;42.872;25.494;2023-03-12T07:28:34;95872.97;;;5.74;61.87
33185;BME280;19550;42.872;25.494;2023-03-12T07:31:01;95864.28;;;5.67;61.96
33185;BME280;19550;42.872;25.494;2023-03-12T07:33:29;95867.63;;;5.50;62.71
33185;BME280;19550;42.872;25.494;2023-03-12T07:35:56;95865.06;;;5.54;62.82
33185;BME280;19550;42.872;25.494;2023-03-12T07:38:24;95887.31;;;5.39;62.38
33185;BME280;19550;42.872;25.494;2023-03-12T07:40:51;95883.13;;;5.28;62.05
33185;BME280;19550;42.872;25.494;2023-03-12T07:43:18;95878.88;;;5.35;63.79
33185;BME280;19550;42.872;25.494;2023-03-12T07:45:44;95894.63;;;5.62;62.54
33185;BME280;19550;42.872;25.494;2023-03-12T07:48:11;95882.91;;;5.89;61.70
33185;BME280;19550;42.872;25.494;2023-03-12T07:50:40;95879.69;;;5.82;61.18
33185;BME280;19550;42.872;25.494;2023-03-12T07:53:07;95885.78;;;6.11;61.33
33185;BME280;19550;42.872;25.494;2023-03-12T07:55:34;95893.59;;;5.90;59.52
33185;BME280;19550;42.872;25.494;2023-03-12T07:58:01;95903.09;;;6.12;60.32
33185;BME280;19550;42.872;25.494;2023-03-12T08:00:28;95907.69;;;6.16;60.65
33185;BME280;19550;42.872;25.494;2023-03-12T08:02:55;95912.56;;;6.19;59.99
33185;BME280;19550;42.872;25.494;2023-03-12T08:05:22;95922.69;;;6.37;59.13
33185;BME280;19550;42.872;25.494;2023-03-12T08:07:51;95912.88;;;6.45;59.05
33185;BME280;19550;42.872;25.494;2023-03-12T08:10:18;95915.44;;;6.55;60.04
33185;BME280;19550;42.872;25.494;2023-03-12T08:12:46;95903.72;;;6.50;59.91
33185;BME280;19550;42.872;25.494;2023-03-12T08:15:13;95907.06;;;6.47;58.26
33185;BME280;19550;42.872;25.494;2023-03-12T08:17:39;95910.53;;;6.66;58.63
33185;BME280;19550;42.872;25.494;2023-03-12T08:20:07;95929.31;;;6.50;58.85
33185;BME280;19550;42.872;25.494;2023-03-12T08:22:35;95925.63;;;6.68;57.73
33185;BME280;19550;42.872;25.494;2023-03-12T08:25:04;95921.44;;;6.71;57.87
33185;BME280;19550;42.872;25.494;2023-03-12T08:27:32;95908.50;;;6.58;57.53
33185;BME280;19550;42.872;25.494;2023-03-12T08:29:59;95919.16;;;6.87;57.42
33185;BME280;19550;42.872;25.494;2023-03-12T08:32:26;95911.03;;;6.68;57.73
33185;BME280;19550;42.872;25.494;2023-03-12T08:34:53;95920.00;;;6.73;58.23
33185;BME280;19550;42.872;25.494;2023-03-12T08:37:20;95928.97;;;6.79;56.84
33185;BME280;19550;42.872;25.494;2023-03-12T08:39:47;95942.91;;;7.10;56.90
33185;BME280;19550;42.872;25.494;2023-03-12T08:42:15;95946.28;;;7.07;56.34
33185;BME280;19550;42.872;25.494;2023-03-12T08:44:42;95930.69;;;7.02;56.73
33185;BME280;19550;42.872;25.494;2023-03-12T08:47:09;95935.41;;;7.24;58.13
33185;BME280;19550;42.872;25.494;2023-03-12T08:49:36;95944.06;;;6.95;56.99
33185;BME280;19550;42.872;25.494;2023-03-12T08:52:03;95959.91;;;6.76;57.95
33185;BME280;19550;42.872;25.494;2023-03-12T08:54:30;95968.25;;;6.85;57.06
33185;BME280;19550;42.872;25.494;2023-03-12T08:56:56;95968.44;;;7.02;57.40
33185;BME280;19550;42.872;25.494;2023-03-12T08:59:25;95974.41;;;7.31;57.22
33185;BME280;19550;42.872;25.494;2023-03-12T09:01:52;95969.69;;;7.32;56.99
33185;BME280;19550;42.872;25.494;2023-03-12T09:04:19;95954.16;;;7.36;56.96
33185;BME280;19550;42.872;25.494;2023-03-12T09:06:45;95967.44;;;7.34;57.09
33185;BME280;19550;42.872;25.494;2023-03-12T09:09:12;95959.09;;;7.11;57.03
33185;BME280;19550;42.872;25.494;2023-03-12T09:11:39;95957.22;;;7.34;57.46
33185;BME280;19550;42.872;25.494;2023-03-12T09:14:07;95960.28;;;7.33;57.41
33185;BME280;19550;42.872;25.494;2023-03-12T09:16:35;95975.06;;;7.50;56.73
33185;BME280;19550;42.872;25.494;2023-03-12T09:19:02;95967.97;;;7.58;58.16
33185;BME280;19550;42.872;25.494;2023-03-12T09:21:29;95969.03;;;7.48;57.03
33185;BME280;19550;42.872;25.494;2023-03-12T09:23:56;95963.16;;;7.86;56.78
33185;BME280;19550;42.872;25.494;2023-03-12T09:26:23;95974.31;;;8.03;55.64
33185;BME280;19550;42.872;25.494;2023-03-12T09:28:50;95975.69;;;7.92;56.25
33185;BME280;19550;42.872;25.494;2023-03-12T09:31:16;95979.06;;;8.11;55.63
33185;BME280;19550;42.872;25.494;2023-03-12T09:33:45;95993.13;;;7.79;55.59
33185;BME280;19550;42.872;25.494;2023-03-12T09:36:12;95977.81;;;7.95;54.98
33185;BME280;19550;42.872;25.494;2023-03-12T09:38:38;95969.53;;;8.17;55.14
33185;BME280;19550;42.872;25.494;2023-03-12T09:41:11;95980.97;;;8.02;55.38
33185;BME280;19550;42.872;25.494;2023-03-12T09:43:44;95973.78;;;8.23;56.10
33185;BME280;19550;42.872;25.494;2023-03-12T09:46:17;95970.53;;;8.83;54.44
33185;BME280;19550;42.872;25.494;2023-03-12T09:48:49;95969.16;;;9.20;53.34
33185;BME280;19550;42.872;25.494;2023-03-12T09:51:21;95979.00;;;8.95;53.86
33185;BME280;19550;42.872;25.494;2023-03-12T09:53:51;95981.56;;;9.48;53.82
33185;BME280;19550;42.872;25.494;2023-03-12T09:56:20;95972.25;;;9.44;52.69
33185;BME280;19550;42.872;25.494;2023-03-12T09:58:48;95975.53;;;9.55;52.58
33185;BME280;19550;42.872;25.494;2023-03-12T10:01:28;95987.06;;;9.40;51.13
33185;BME280;19550;42.872;25.494;2023-03-12T10:04:30;95958.41;;;9.18;51.55
33185;BME280;19550;42.872;25.494;2023-03-12T10:07:06;95981.50;;;9.14;53.25
33185;BME280;19550;42.872;25.494;2023-03-12T10:09:53;95972.72;;;8.64;53.32
33185;BME280;19550;42.872;25.494;2023-03-12T10:12:33;95953.38;;;9.21;52.87
33185;BME280;19550;42.872;25.494;2023-03-12T10:15:14;95972.56;;;8.69;52.04
33185;BME280;19550;42.872;25.494;2023-03-12T10:17:53;95978.50;;;8.93;51.91
33185;BME280;19550;42.872;25.494;2023-03-12T10:20:45;95976.94;;;9.09;52.79
33185;BME280;19550;42.872;25.494;2023-03-12T10:23:21;95991.59;;;9.27;51.62
33185;BME280;19550;42.872;25.494;2023-03-12T10:25:56;95984.19;;;8.88;52.45
33185;BME280;19550;42.872;25.494;2023-03-12T10:28:28;95996.47;;;9.22;52.96
33185;BME280;19550;42.872;25.494;2023-03-12T10:31:01;95985.59;;;9.34;51.92
33185;BME280;19550;42.872;25.494;2023-03-12T10:33:37;95985.13;;;9.49;52.72
33185;BME280;19550;42.872;25.494;2023-03-12T10:36:15;95991.66;;;9.70;51.37
33185;BME280;19550;42.872;25.494;2023-03-12T10:38:43;95993.44;;;9.75;51.08
33185;BME280;19550;42.872;25.494;2023-03-12T10:41:15;95993.28;;;9.54;51.75
33185;BME280;19550;42.872;25.494;2023-03-12T10:43:42;95985.22;;;9.18;52.04
33185;BME280;19550;42.872;25.494;2023-03-12T10:46:31;95982.72;;;9.56;51.78
33185;BME280;19550;42.872;25.494;2023-03-12T10:49:22;95983.03;;;9.63;52.22
33185;BME280;19550;42.872;25.494;2023-03-12T10:51:55;95971.47;;;9.87;50.60
33185;BME280;19550;42.872;25.494;2023-03-12T10:54:26;95980.41;;;9.92;51.58
33185;BME280;19550;42.872;25.494;2023-03-12T10:56:53;95973.88;;;10.06;51.84
33185;BME280;19550;42.872;25.494;2023-03-12T10:59:21;95969.97;;;10.07;50.60
33185;BME280;19550;42.872;25.494;2023-03-12T11:01:51;95973.59;;;9.81;51.18
33185;BME280;19550;42.872;25.494;2023-03-12T11:04:23;95985.28;;;9.52;52.56
33185;BME280;19550;42.872;25.494;2023-03-12T11:07:20;95998.41;;;9.04;53.01
33185;BME280;19550;42.872;25.494;2023-03-12T11:10:12;96004.09;;;9.07;53.64
33185;BME280;19550;42.872;25.494;2023-03-12T11:12:49;95990.56;;;9.06;54.35
33185;BME280;19550;42.872;25.494;2023-03-12T11:15:18;95990.28;;;9.16;52.69
33185;BME280;19550;42.872;25.494;2023-03-12T11:17:46;95987.09;;;9.57;52.81
33185;BME280;19550;42.872;25.494;2023-03-12T11:20:26;95992.78;;;9.78;51.47
33185;BME280;19550;42.872;25.494;2023-03-12T11:22:55;95983.19;;;9.75;50.80
33185;BME280;19550;42.872;25.494;2023-03-12T11:25:24;95981.72;;;9.43;50.65
33185;BME280;19550;42.872;25.494;2023-03-12T11:27:53;95987.75;;;9.63;51.20
33185;BME280;19550;42.872;25.494;2023-03-12T11:30:22;95992.88;;;9.04;52.97
33185;BME280;19550;42.872;25.494;2023-03-12T11:32:50;95990.91;;;9.13;53.77
33185;BME280;19550;42.872;25.494;2023-03-12T11:35:21;95999.78;;;9.49;53.41
33185;BME280;19550;42.872;25.494;2023-03-12T11:38:00;96007.09;;;9.37;52.47
33185;BME280;19550;42.872;25.494;2023-03-12T11:40:56;96013.19;;;9.08;52.08
33185;BME280;19550;42.872;25.494;2023-03-12T11:43:37;96010.38;;;9.56;52.01
33185;BME280;19550;42.872;25.494;2023-03-12T11:46:17;96008.75;;;9.89;51.23
33185;BME280;19550;42.872;25.494;2023-03-12T11:49:00;96017.47;;;9.31;51.62
33185;BME280;19550;42.872;25.494;2023-03-12T11:51:37;96021.88;;;9.24;52.47
33185;BME280;19550;42.872;25.494;2023-03-12T11:57:03;96011.00;;;9.44;51.37
33185;BME280;19550;42.872;25.494;2023-03-12T11:59:45;96023.38;;;9.47;51.34
33185;BME280;19550;42.872;25.494;2023-03-12T12:02:33;96022.13;;;9.70;51.28
33185;BME280;19550;42.872;25.494;2023-03-12T12:05:21;96020.97;;;9.80;49.85
33185;BME280;19550;42.872;25.494;2023-03-12T12:07:59;96008.88;;;10.45;48.75
33185;BME280;19550;42.872;25.494;2023-03-12T12:10:36;96018.16;;;11.33;47.87
33185;BME280;19550;42.872;25.494;2023-03-12T12:13:10;96015.78;;;11.73;46.60
33185;BME280;19550;42.872;25.494;2023-03-12T12:15:46;96009.28;;;11.48;45.62
33185;BME280;19550;42.872;25.494;2023-03-12T12:18:41;96014.31;;;11.17;45.13
33185;BME280;19550;42.872;25.494;2023-03-12T12:21:24;96023.28;;;10.29;46.17
33185;BME280;19550;42.872;25.494;2023-03-12T12:24:04;96019.09;;;10.70;45.82
33185;BME280;19550;42.872;25.494;2023-03-12T12:26:42;96014.50;;;10.74;47.02
33185;BME280;19550;42.872;25.494;2023-03-12T12:29:22;96008.38;;;10.98;45.64
33185;BME280;19550;42.872;25.494;2023-03-12T12:31:53;96025.66;;;11.03;44.43
33185;BME280;19550;42.872;25.494;2023-03-12T12:34:59;96020.31;;;11.28;44.91
33185;BME280;19550;42.872;25.494;2023-03-12T12:37:40;96027.50;;;11.29;44.25
33185;BME280;19550;42.872;25.494;2023-03-12T12:40:17;96023.91;;;11.28;45.12
33185;BME280;19550;42.872;25.494;2023-03-12T12:43:05;96027.56;;;10.73;45.84
33185;BME280;19550;42.872;25.494;2023-03-12T12:45:35;96030.22;;;10.53;46.37
33185;BME280;19550;42.872;25.494;2023-03-12T12:48:07;96035.25;;;10.59;46.47
33185;BME280;19550;42.872;25.494;2023-03-12T12:50:38;96035.75;;;10.61;46.32
33185;BME280;19550;42.872;25.494;2023-03-12T12:53:14;96033.84;;;10.36;47.10
33185;BME280;19550;42.872;25.494;2023-03-12T12:55:51;96043.28;;;10.18;47.19
33185;BME280;19550;42.872;25.494;2023-03-12T12:58:27;96050.09;;;9.77;48.92
33185;BME280;19550;42.872;25.494;2023-03-12T13:00:59;96039.38;;;10.10;49.23
33185;BME280;19550;42.872;25.494;2023-03-12T13:03:27;96038.41;;;10.15;48.11
33185;BME280;19550;42.872;25.494;2023-03-12T13:05:56;96042.94;;;9.93;49.30
33185;BME280;19550;42.872;25.494;2023-03-12T13:08:32;96054.97;;;9.72;49.66
33185;BME280;19550;42.872;25.494;2023-03-12T13:11:03;96056.19;;;9.31;50.35
33185;BME280;19550;42.872;25.494;2023-03-12T13:13:32;96054.19;;;9.14;50.30
33185;BME280;19550;42.872;25.494;2023-03-12T13:16:26;96062.66;;;9.18;51.64
33185;BME280;19550;42.872;25.494;2023-03-12T13:18:57;96057.06;;;9.01;52.50
33185;BME280;19550;42.872;25.494;2023-03-12T13:21:30;96061.88;;;8.87;53.68